createdAt,value
2018-12-26T00:04:32.995Z,17.63
2018-12-26T00:07:14.010Z,17.73
2018-12-26T00:13:07.548Z,21.10
2018-12-26T00:15:48.069Z,21.30
2018-12-26T00:18:28.852Z,22.23
2018-12-26T00:24:22.341Z,19.27
2018-12-26T00:27:02.779Z,20.73
2018-12-26T00:29:43.403Z,19.50
2018-12-26T00:32:24.181Z,20.30
2018-12-26T00:35:04.953Z,21.17
2018-12-26T00:37:45.689Z,20.27
2018-12-26T00:40:26.393Z,19.90
2018-12-26T00:43:06.975Z,20.50
2018-12-26T00:45:47.605Z,19.40
2018-12-26T00:48:28.584Z,19.47
2018-12-26T00:51:08.872Z,19.80
2018-12-26T00:53:49.549Z,19.60
2018-12-26T00:56:30.504Z,20.10
2018-12-26T01:11:04.411Z,21.13
2018-12-26T01:13:45.180Z,19.07
2018-12-26T01:16:25.768Z,20.83
2018-12-26T01:19:06.557Z,19.40
2018-12-26T01:30:55.970Z,20.00
2018-12-26T01:33:37.585Z,20.10
2018-12-26T01:39:31.444Z,18.10
2018-12-26T01:42:12.030Z,21.20
2018-12-26T01:50:52.691Z,19.10
2018-12-26T01:56:35.484Z,19.77
2018-12-26T01:59:15.894Z,20.27
2018-12-26T02:01:56.841Z,21.80
2018-12-26T02:07:36.920Z,19.43
2018-12-26T02:10:17.609Z,20.57
2018-12-26T02:12:57.964Z,19.17
2018-12-26T02:15:38.759Z,19.23
2018-12-26T02:18:19.160Z,17.13
2018-12-26T02:20:59.961Z,19.77
2018-12-26T02:23:40.870Z,19.93
2018-12-26T02:29:34.557Z,20.47
2018-12-26T02:32:15.492Z,20.73
2018-12-26T02:34:55.848Z,20.33
2018-12-26T02:37:36.412Z,20.33
2018-12-26T02:43:16.167Z,20.50
2018-12-26T02:45:56.772Z,19.60
2018-12-26T02:48:37.305Z,18.60
2018-12-26T02:51:17.940Z,21.43
2018-12-26T02:53:58.601Z,19.03
2018-12-26T02:56:46.592Z,18.10
2018-12-26T02:59:22.198Z,19.60
2018-12-26T03:02:02.989Z,18.80
2018-12-26T03:04:43.683Z,19.40
2018-12-26T03:07:24.478Z,20.17
2018-12-26T03:10:05.240Z,18.53
2018-12-26T03:12:45.753Z,21.83
2018-12-26T03:15:26.280Z,20.03
2018-12-26T03:18:06.838Z,20.90
2018-12-26T03:20:47.319Z,19.80
2018-12-26T03:23:28.099Z,19.17
2018-12-26T03:26:08.865Z,17.70
2018-12-26T03:28:49.729Z,19.00
2018-12-26T03:31:30.665Z,19.30
2018-12-26T03:34:12.266Z,19.60
2018-12-26T03:36:52.550Z,19.77
2018-12-26T03:39:32.961Z,18.37
2018-12-26T03:42:13.612Z,20.87
2018-12-26T03:44:54.131Z,21.30
2018-12-26T03:47:34.690Z,20.40
2018-12-26T03:50:15.006Z,19.93
2018-12-26T03:52:55.785Z,18.67
2018-12-26T03:55:36.279Z,22.27
2018-12-26T03:58:17.010Z,20.73
2018-12-26T04:00:57.669Z,18.30
2018-12-26T04:03:38.239Z,18.27
2018-12-26T04:06:18.688Z,20.13
2018-12-26T04:08:59.117Z,20.60
2018-12-26T04:11:39.935Z,19.63
2018-12-26T04:14:20.609Z,20.00
2018-12-26T04:17:01.422Z,19.70
2018-12-26T04:19:42.155Z,21.10
2018-12-26T04:22:22.932Z,20.30
2018-12-26T04:28:02.639Z,20.47
2018-12-26T04:30:43.100Z,19.80
2018-12-26T04:33:23.954Z,20.07
2018-12-26T04:36:04.666Z,19.57
2018-12-26T04:38:45.636Z,18.17
2018-12-26T04:41:26.358Z,19.70
2018-12-26T04:44:07.171Z,20.60
2018-12-26T04:46:47.685Z,19.87
2018-12-26T04:49:28.490Z,21.27
2018-12-26T04:52:09.006Z,18.87
2018-12-26T04:54:49.748Z,20.33
2018-12-26T04:57:30.305Z,21.07
2018-12-26T05:00:10.844Z,21.57
2018-12-26T05:06:04.074Z,19.60
2018-12-26T05:08:44.993Z,20.47
2018-12-26T05:11:25.359Z,21.97
2018-12-26T05:14:05.789Z,19.17
2018-12-26T05:16:46.470Z,20.40
2018-12-26T05:19:27.169Z,19.30
2018-12-26T05:22:07.899Z,18.40
2018-12-26T05:24:48.455Z,20.80
2018-12-26T05:27:34.110Z,21.00
2018-12-26T05:30:11.713Z,20.73
2018-12-26T05:32:52.009Z,20.47
2018-12-26T05:35:32.807Z,19.80
2018-12-26T05:38:13.849Z,19.27
2018-12-26T05:40:54.323Z,19.03
2018-12-26T05:43:35.141Z,21.40
2018-12-26T05:46:15.965Z,23.87
2018-12-26T05:48:56.653Z,20.97
2018-12-26T05:51:37.312Z,30.37
2018-12-26T05:54:17.990Z,20.80
2018-12-26T06:09:06.022Z,18.33
2018-12-26T06:11:46.642Z,22.37
2018-12-26T06:14:27.366Z,20.00
2018-12-26T06:17:08.062Z,19.30
2018-12-26T06:19:48.696Z,19.33
2018-12-26T06:22:29.673Z,19.77
2018-12-26T06:25:10.140Z,22.13
2018-12-26T06:27:51.518Z,22.87
2018-12-26T06:30:32.134Z,18.60
2018-12-26T06:33:12.533Z,21.23
2018-12-26T06:35:53.075Z,20.23
2018-12-26T06:38:33.985Z,20.10
2018-12-26T06:41:14.255Z,23.90
2018-12-26T06:43:55.158Z,20.67
2018-12-26T06:46:36.110Z,21.70
2018-12-26T06:49:16.556Z,23.20
2018-12-26T06:51:57.373Z,19.50
2018-12-26T06:54:38.270Z,20.60
2018-12-26T06:57:19.177Z,21.40
2018-12-26T06:59:59.779Z,20.97
2018-12-26T07:02:40.817Z,25.00
2018-12-26T07:05:21.274Z,22.93
2018-12-26T07:08:02.068Z,21.30
2018-12-26T07:14:30.273Z,20.47
2018-12-26T07:16:58.712Z,26.87
2018-12-26T07:19:33.924Z,25.30
2018-12-26T07:22:02.398Z,23.67
2018-12-26T07:24:30.826Z,21.40
2018-12-26T07:27:01.237Z,21.87
2018-12-26T07:29:29.695Z,21.80
2018-12-26T07:31:58.133Z,22.40
2018-12-26T07:34:26.562Z,21.97
2018-12-26T07:36:54.986Z,22.37
2018-12-26T07:39:23.464Z,24.40
2018-12-26T07:41:54.837Z,21.40
2018-12-26T07:44:24.511Z,22.90
2018-12-26T07:46:52.945Z,23.57
2018-12-26T07:49:23.419Z,23.17
2018-12-26T07:51:51.863Z,23.30
2018-12-26T07:54:22.256Z,22.70
2018-12-26T07:56:50.681Z,23.40
2018-12-26T07:59:19.092Z,22.57
2018-12-26T08:01:48.540Z,22.37
2018-12-26T08:04:16.971Z,21.60
2018-12-26T08:06:56.545Z,21.77
2018-12-26T08:09:24.961Z,21.10
2018-12-26T08:11:53.391Z,23.53
2018-12-26T08:14:21.816Z,21.73
2018-12-26T08:16:50.297Z,20.37
2018-12-26T08:19:18.729Z,21.40
2018-12-26T08:21:47.179Z,19.60
2018-12-26T08:24:15.592Z,21.23
2018-12-26T08:26:44.036Z,20.33
2018-12-26T08:29:12.456Z,19.77
2018-12-26T08:31:40.886Z,19.40
2018-12-26T08:34:09.292Z,20.40
2018-12-26T08:36:37.745Z,18.10
2018-12-26T08:39:06.799Z,23.07
2018-12-26T08:41:35.293Z,18.20
2018-12-26T08:44:03.709Z,19.97
2018-12-26T08:46:32.117Z,19.90
2018-12-26T08:49:00.541Z,19.47
2018-12-26T08:51:28.971Z,19.17
2018-12-26T08:53:57.399Z,22.20
2018-12-26T08:56:25.822Z,19.07
2018-12-26T08:58:54.230Z,20.73
2018-12-26T09:01:22.654Z,19.40
2018-12-26T09:03:51.073Z,19.43
2018-12-26T09:06:19.521Z,20.17
2018-12-26T09:08:53.202Z,22.13
2018-12-26T09:11:21.642Z,19.70
2018-12-26T09:13:50.076Z,21.03
2018-12-26T09:16:18.499Z,22.20
2018-12-26T09:18:46.937Z,22.30
2018-12-26T09:21:18.360Z,22.23
2018-12-26T09:23:52.873Z,21.50
2018-12-26T09:26:21.298Z,20.87
2018-12-26T09:28:49.704Z,23.37
2018-12-26T09:31:30.073Z,21.50
2018-12-26T09:33:58.507Z,22.57
2018-12-26T09:36:26.953Z,21.10
2018-12-26T09:39:22.721Z,20.90
2018-12-26T09:41:52.079Z,18.23
2018-12-26T09:44:20.505Z,20.30
2018-12-26T09:46:48.930Z,17.50
2018-12-26T09:49:24.171Z,18.37
2018-12-26T09:51:52.596Z,19.70
2018-12-26T09:54:21.001Z,19.40
2018-12-26T09:56:51.379Z,19.97
2018-12-26T09:59:19.781Z,21.47
2018-12-26T10:01:48.213Z,18.93
2018-12-26T10:04:16.641Z,18.43
2018-12-26T10:06:56.148Z,20.27
2018-12-26T10:09:24.553Z,19.77
2018-12-26T10:11:52.976Z,22.87
2018-12-26T10:14:21.401Z,19.00
2018-12-26T10:16:49.840Z,20.00
2018-12-26T10:19:18.259Z,21.00
2018-12-26T10:21:46.697Z,21.60
2018-12-26T10:24:15.122Z,20.73
2018-12-26T10:26:43.564Z,21.77
2018-12-26T10:29:11.987Z,22.13
2018-12-26T10:31:40.467Z,20.37
2018-12-26T10:34:08.885Z,20.93
2018-12-26T10:36:37.315Z,23.00
2018-12-26T10:39:07.091Z,23.63
2018-12-26T10:41:35.541Z,21.23
2018-12-26T10:44:04.448Z,22.60
2018-12-26T10:46:32.854Z,24.90
2018-12-26T10:49:06.264Z,25.80
2018-12-26T10:51:34.687Z,23.97
2018-12-26T10:54:03.115Z,24.80
2018-12-26T10:56:31.535Z,48.27
2018-12-26T10:59:00.108Z,38.50
2018-12-26T11:01:28.517Z,24.87
2018-12-26T11:04:03.924Z,25.63
2018-12-26T11:06:32.404Z,30.37
2018-12-26T11:09:00.857Z,25.07
2018-12-26T11:11:34.266Z,23.37
2018-12-26T11:14:02.707Z,25.13
2018-12-26T11:16:31.129Z,22.57
2018-12-26T11:19:01.936Z,24.37
2018-12-26T11:21:30.365Z,28.83
2018-12-26T11:23:58.777Z,25.43
2018-12-26T11:26:27.185Z,27.60
2018-12-26T11:28:55.630Z,22.70
2018-12-26T11:31:24.051Z,24.53
2018-12-26T11:33:52.488Z,23.70
2018-12-26T11:36:20.912Z,27.43
2018-12-26T11:38:49.429Z,25.53
2018-12-26T11:41:17.851Z,24.27
2018-12-26T11:43:46.265Z,24.40
2018-12-26T11:46:14.677Z,26.00
2018-12-26T11:48:43.105Z,21.93
2018-12-26T11:51:11.527Z,23.27
2018-12-26T11:53:39.948Z,24.07
2018-12-26T11:56:08.356Z,23.10
2018-12-26T11:58:36.786Z,23.90
2018-12-26T12:01:07.159Z,22.10
2018-12-26T12:03:35.662Z,21.63
2018-12-26T12:06:04.155Z,22.97
2018-12-26T12:08:32.581Z,21.43
2018-12-26T12:11:00.989Z,21.70
2018-12-26T12:13:29.436Z,20.90
2018-12-26T12:15:57.844Z,21.50
2018-12-26T12:18:26.275Z,20.90
2018-12-26T12:20:54.693Z,19.40
2018-12-26T12:23:23.117Z,19.50
2018-12-26T12:25:51.550Z,20.87
2018-12-26T12:28:20.877Z,20.13
2018-12-26T12:30:49.302Z,19.57
2018-12-26T12:33:17.730Z,20.27
2018-12-26T12:35:46.243Z,22.07
2018-12-26T12:38:14.725Z,20.20
2018-12-26T12:40:43.411Z,21.60
2018-12-26T12:43:11.821Z,21.30
2018-12-26T12:45:40.258Z,24.10
2018-12-26T12:48:08.665Z,23.60
2018-12-26T12:50:37.088Z,23.50
2018-12-26T12:53:05.511Z,22.30
2018-12-26T12:55:33.941Z,20.60
2018-12-26T12:58:02.422Z,21.47
2018-12-26T13:00:31.220Z,21.10
2018-12-26T13:03:00.535Z,23.27
2018-12-26T13:05:29.622Z,21.70
2018-12-26T13:07:58.047Z,19.83
2018-12-26T13:10:26.487Z,21.20
2018-12-26T13:12:54.960Z,19.70
2018-12-26T13:15:23.392Z,26.73
2018-12-26T13:17:51.819Z,22.57
2018-12-26T13:20:20.241Z,22.00
2018-12-26T13:22:48.657Z,21.00
2018-12-26T13:25:17.147Z,22.27
2018-12-26T13:27:45.573Z,24.57
2018-12-26T13:30:14.005Z,23.50
2018-12-26T13:32:42.412Z,27.07
2018-12-26T13:35:10.870Z,24.83
2018-12-26T13:37:43.268Z,19.47
2018-12-26T13:40:11.692Z,21.67
2018-12-26T13:42:40.120Z,25.60
2018-12-26T13:45:08.627Z,24.23
2018-12-26T13:47:37.056Z,20.47
2018-12-26T13:50:06.728Z,18.60
2018-12-26T13:52:35.140Z,20.53
2018-12-26T13:55:03.579Z,20.87
2018-12-26T13:57:31.993Z,20.97
2018-12-26T14:00:02.355Z,20.73
2018-12-26T14:02:30.564Z,19.30
2018-12-26T14:04:59.007Z,18.60
2018-12-26T14:07:27.422Z,19.67
2018-12-26T14:09:55.853Z,20.47
2018-12-26T14:12:25.193Z,19.70
2018-12-26T14:14:53.620Z,18.90
2018-12-26T14:17:22.042Z,20.00
2018-12-26T14:19:51.453Z,20.33
2018-12-26T14:22:19.881Z,20.33
2018-12-26T14:24:48.322Z,20.60
2018-12-26T14:27:16.755Z,19.80
2018-12-26T14:29:45.179Z,19.67
2018-12-26T14:32:13.623Z,19.20
2018-12-26T14:34:42.025Z,19.27
2018-12-26T14:37:10.451Z,20.60
2018-12-26T14:39:38.887Z,22.40
2018-12-26T14:42:07.317Z,22.37
2018-12-26T14:44:35.741Z,22.17
2018-12-26T14:47:04.251Z,20.90
2018-12-26T14:49:33.627Z,21.87
2018-12-26T14:52:02.058Z,20.77
2018-12-26T14:54:30.475Z,22.60
2018-12-26T14:56:59.900Z,20.43
2018-12-26T14:59:28.306Z,21.67
2018-12-26T15:01:56.744Z,18.70
2018-12-26T15:04:25.157Z,19.63
2018-12-26T15:06:53.597Z,20.70
2018-12-26T15:09:22.026Z,20.03
2018-12-26T15:11:50.471Z,20.60
2018-12-26T15:14:18.878Z,20.60
2018-12-26T15:16:48.240Z,19.87
2018-12-26T15:19:18.203Z,22.50
2018-12-26T15:21:46.722Z,20.60
2018-12-26T15:24:15.143Z,19.87
2018-12-26T15:26:43.583Z,21.00
2018-12-26T15:29:11.992Z,20.23
2018-12-26T15:31:40.435Z,21.50
2018-12-26T15:34:08.843Z,20.50
2018-12-26T15:36:37.265Z,22.70
2018-12-26T15:39:08.180Z,21.20
2018-12-26T15:41:36.636Z,22.93
2018-12-26T15:44:05.051Z,22.17
2018-12-26T15:46:33.503Z,24.63
2018-12-26T15:49:01.912Z,23.67
2018-12-26T15:51:30.332Z,23.90
2018-12-26T15:53:58.748Z,24.07
2018-12-26T15:56:27.177Z,23.70
2018-12-26T15:58:55.584Z,24.60
2018-12-26T16:01:24.027Z,23.20
2018-12-26T16:03:52.435Z,22.83
2018-12-26T16:06:20.860Z,22.53
2018-12-26T16:08:49.292Z,23.30
2018-12-26T16:11:17.720Z,22.03
2018-12-26T16:13:46.125Z,23.17
2018-12-26T16:16:14.552Z,22.17
2018-12-26T16:18:42.967Z,23.20
2018-12-26T16:21:11.392Z,21.70
2018-12-26T16:23:39.834Z,24.00
2018-12-26T16:26:08.274Z,23.47
2018-12-26T16:28:36.715Z,22.83
2018-12-26T16:31:05.239Z,21.47
2018-12-26T16:33:33.665Z,21.60
2018-12-26T16:36:02.149Z,20.73
2018-12-26T16:38:30.599Z,20.90
2018-12-26T16:40:59.001Z,21.13
2018-12-26T16:43:27.428Z,22.17
2018-12-26T16:45:55.850Z,22.13
2018-12-26T16:48:24.281Z,24.13
2018-12-26T16:50:52.705Z,20.83
2018-12-26T16:53:21.237Z,24.10
2018-12-26T16:55:50.566Z,21.40
2018-12-26T16:58:19.009Z,22.47
2018-12-26T17:00:54.838Z,22.10
2018-12-26T17:03:17.560Z,22.27
2018-12-26T17:05:45.977Z,22.53
2018-12-26T17:08:14.406Z,23.03
2018-12-26T17:10:42.831Z,22.47
2018-12-26T17:13:11.274Z,20.97
2018-12-26T17:15:39.681Z,23.37
2018-12-26T17:18:08.106Z,24.60
2018-12-26T17:20:36.517Z,23.53
2018-12-26T17:23:04.944Z,24.10
2018-12-26T17:25:33.357Z,22.60
2018-12-26T17:28:01.789Z,32.47
2018-12-26T17:30:30.201Z,25.10
2018-12-26T17:33:00.761Z,28.10
2018-12-26T17:35:28.764Z,26.33
2018-12-26T17:37:57.203Z,26.40
2018-12-26T17:40:25.601Z,20.80
2018-12-26T17:42:54.036Z,22.40
2018-12-26T17:45:23.105Z,22.67
2018-12-26T17:47:51.532Z,23.67
2018-12-26T17:50:43.634Z,23.20
2018-12-26T17:53:22.581Z,24.93
2018-12-26T17:56:12.266Z,23.60
2018-12-26T17:59:01.871Z,25.87
2018-12-26T18:01:38.975Z,24.30
2018-12-26T18:04:07.405Z,23.60
2018-12-26T18:06:35.820Z,22.53
2018-12-26T18:09:06.410Z,25.52
2018-12-26T18:11:34.825Z,25.63
2018-12-26T18:14:03.259Z,25.97
2018-12-26T18:16:31.749Z,31.20
2018-12-26T18:19:00.213Z,24.23
2018-12-26T18:21:28.629Z,22.53
2018-12-26T18:23:57.073Z,23.02
2018-12-26T18:26:25.561Z,22.30
2018-12-26T18:28:54.011Z,20.85
2018-12-26T18:31:22.437Z,22.52
2018-12-26T18:33:50.879Z,23.67
2018-12-26T18:36:19.299Z,24.05
2018-12-26T18:38:47.741Z,23.15
2018-12-26T18:41:16.172Z,22.73
2018-12-26T18:43:44.600Z,23.27
2018-12-26T18:46:13.017Z,23.70
2018-12-26T18:48:41.453Z,22.47
2018-12-26T18:51:09.869Z,25.12
2018-12-26T18:53:38.299Z,22.47
2018-12-26T18:56:06.728Z,24.75
2018-12-26T18:58:35.177Z,24.40
2018-12-26T19:01:03.682Z,25.40
2018-12-26T19:03:32.109Z,24.80
2018-12-26T19:06:00.525Z,24.47
2018-12-26T19:08:28.975Z,24.30
2018-12-26T19:10:57.401Z,25.82
2018-12-26T19:13:25.882Z,24.05
2018-12-26T19:15:54.304Z,24.60
2018-12-26T19:18:22.790Z,24.55
2018-12-26T19:20:51.205Z,24.07
2018-12-26T19:23:19.630Z,24.20
2018-12-26T19:25:48.092Z,24.97
2018-12-26T19:28:16.573Z,24.50
2018-12-26T19:30:45.023Z,23.32
2018-12-26T19:33:13.454Z,23.73
2018-12-26T19:35:41.892Z,25.53
2018-12-26T19:38:10.320Z,36.50
2018-12-26T19:40:38.769Z,55.98
2018-12-26T19:43:07.196Z,35.17
2018-12-26T19:45:35.631Z,27.15
2018-12-26T19:48:04.062Z,26.60
2018-12-26T19:50:32.505Z,30.17
2018-12-26T19:53:00.939Z,30.30
2018-12-26T19:55:29.404Z,29.67
2018-12-26T19:57:57.849Z,28.45
2018-12-26T20:00:26.295Z,28.25
2018-12-26T20:02:54.721Z,30.90
2018-12-26T20:05:23.201Z,29.00
2018-12-26T20:07:51.608Z,30.05
2018-12-26T20:10:20.073Z,29.67
2018-12-26T20:12:48.516Z,28.55
2018-12-26T20:15:16.938Z,28.17
2018-12-26T20:17:45.494Z,25.80
2018-12-26T20:20:13.899Z,33.57
2018-12-26T20:22:42.344Z,28.90
2018-12-26T20:25:10.788Z,28.62
2018-12-26T20:27:39.235Z,25.80
2018-12-26T20:30:08.402Z,28.87
2018-12-26T20:32:36.816Z,31.27
2018-12-26T20:35:05.625Z,30.45
2018-12-26T20:37:34.054Z,31.20
2018-12-26T20:40:02.484Z,26.95
2018-12-26T20:42:30.927Z,26.55
2018-12-26T20:44:59.353Z,36.58
2018-12-26T20:47:27.788Z,48.00
2018-12-26T20:49:56.221Z,46.08
2018-12-26T20:52:24.669Z,40.70
2018-12-26T20:54:53.109Z,32.15
2018-12-26T20:57:21.537Z,30.10
2018-12-26T20:59:50.330Z,27.95
2018-12-26T21:02:18.783Z,29.75
2018-12-26T21:04:47.206Z,30.97
2018-12-26T21:07:15.644Z,32.33
2018-12-26T21:09:44.067Z,35.00
2018-12-26T21:12:12.683Z,30.57
2018-12-26T21:14:41.110Z,33.33
2018-12-26T21:17:09.564Z,30.32
2018-12-26T21:19:38.071Z,32.43
2018-12-26T21:22:06.510Z,28.32
2018-12-26T21:24:34.936Z,29.20
2018-12-26T21:27:03.458Z,31.05
2018-12-26T21:29:31.892Z,27.87
2018-12-26T21:32:00.419Z,28.75
2018-12-26T21:34:28.843Z,28.90
2018-12-26T21:36:57.276Z,28.70
2018-12-26T21:39:25.725Z,31.02
2018-12-26T21:41:54.175Z,26.37
2018-12-26T21:44:22.605Z,28.80
2018-12-26T21:46:51.073Z,29.25
2018-12-26T21:49:19.517Z,30.02
2018-12-26T21:51:47.953Z,30.27
2018-12-26T21:54:16.368Z,31.27
2018-12-26T21:56:44.840Z,32.20
2018-12-26T21:59:13.296Z,28.98
2018-12-26T22:01:41.737Z,30.07
2018-12-26T22:04:10.193Z,28.05
2018-12-26T22:06:38.631Z,30.32
2018-12-26T22:09:07.120Z,28.53
2018-12-26T22:11:35.571Z,29.70
2018-12-26T22:14:03.998Z,29.33
2018-12-26T22:16:32.437Z,27.87
2018-12-26T22:19:00.868Z,31.43
2018-12-26T22:21:29.323Z,30.63
2018-12-26T22:23:57.741Z,30.60
2018-12-26T22:26:26.217Z,31.20
2018-12-26T22:28:54.622Z,30.33
2018-12-26T22:31:23.074Z,30.90
2018-12-26T22:33:51.533Z,31.80
2018-12-26T22:36:19.958Z,31.30
2018-12-26T22:38:48.391Z,34.90
2018-12-26T22:41:16.845Z,31.20
2018-12-26T22:43:45.261Z,28.10
2018-12-26T22:46:13.700Z,29.52
2018-12-26T22:48:42.148Z,28.83
2018-12-26T22:51:10.587Z,28.75
2018-12-26T22:53:39.024Z,28.52
2018-12-26T22:56:07.469Z,29.70
2018-12-26T22:58:35.904Z,29.27
2018-12-26T23:01:04.637Z,27.87
2018-12-26T23:03:33.057Z,26.65
2018-12-26T23:06:01.495Z,27.35
2018-12-26T23:08:29.951Z,29.05
2018-12-26T23:10:58.383Z,29.67
2018-12-26T23:13:26.835Z,29.67
2018-12-26T23:15:55.272Z,29.25
2018-12-26T23:18:23.700Z,31.97
2018-12-26T23:20:52.132Z,28.67
2018-12-26T23:23:20.579Z,28.75
2018-12-26T23:25:50.006Z,26.93
2018-12-26T23:28:18.455Z,28.53
2018-12-26T23:30:46.911Z,29.50
2018-12-26T23:33:15.338Z,28.40
2018-12-26T23:35:43.843Z,27.87
2018-12-26T23:38:12.276Z,26.87
2018-12-26T23:40:40.709Z,27.30
2018-12-26T23:43:09.155Z,26.20
2018-12-26T23:45:37.576Z,25.68
2018-12-26T23:48:06.018Z,27.15
2018-12-26T23:50:34.448Z,27.60
2018-12-26T23:53:02.889Z,25.95
2018-12-26T23:55:31.305Z,26.97
2018-12-26T23:57:59.740Z,29.82
